Tropical Cyclones
[Index]
Main Index Home Page Stock Weather Photos Extreme Storms Discussion Storm News and Storm Chasing Reports Tropical Cyclones / Hurricanes / Typhoons Weather Data and Links Wild Fires / Bushfires Weather Observation Techniques Weather Picture Catalogue Tornado Pictures and Reports Stock Video Footage and DVDs for sale
Season 2010-2011 Tropical Cyclone 201101 Track Map
Season 2010-2011 Summaries: [BoM-AU] [JTWC-AU] [JTWC-SIO] [JTWC-SPAC] [JTWC-SH]
<<- Previous TC | JTWC 2010-2011 Season | Next TC ->>

click for intensity scale information  Lat/long Grid: Show Hide

 Date Labels: Show Hide

Joint Typhoon Warning Centre Cyclone Data

Name: 201101

25 Oct 2010 00:00 UTC to 31 Oct 2010 06:00 UTC

    date/time    lat    long     hPa   cat  kts
2010-10-25 00    9.2    87.0    1010         15          
2010-10-25 06    9.4    87.0    1007         20          
2010-10-25 12    9.5    86.7    1004         25          
2010-10-25 18    9.7    86.4    1000         30          
2010-10-26 00    9.9    86.1    1000         30          
2010-10-26 06   10.4    86.3    1000         30          
2010-10-26 12   10.9    86.4     996         35          
2010-10-26 18   11.3    86.1     996         35          
2010-10-27 00   11.8    85.7     996         35          
2010-10-27 06   12.3    85.2     996         35          
2010-10-27 12   12.7    84.6     996         35          
2010-10-27 18   12.9    83.8    1000         30          
2010-10-28 00   13.2    82.9    1000         30          
2010-10-28 06   13.5    81.9    1004         25          
2010-10-28 12   13.9    80.9    1004         25          
2010-10-28 18   14.5    79.8    1004         25          
2010-10-29 00   14.8    78.6    1004         25          
2010-10-29 06   14.9    77.5    1004         25          
2010-10-29 12   14.9    76.4    1004         25          
2010-10-29 18   14.8    75.4    1007         20          
2010-10-30 00   14.8    74.4    1007         20          
2010-10-30 06   14.8    73.4    1007         20          
2010-10-30 12   14.8    72.4    1010         15          
2010-10-30 18   14.7    71.5    1010         15          
2010-10-31 00   14.4    70.7    1010         15          
2010-10-31 06   14.1    69.9    1010         15          
Winds are 1-min average.

Tropical cyclone tracks developed by Michael Bath using data from the Joint Typhoon Warning Centre Best Tracks and Google Maps.


[Australian Severe Weather index] [Copyright Notice] [Email Contacts] [Search This Site] [Privacy Policy]
Document: tropical_cyclone_201101.htm Updated: 28 June 2017